Time;durP1;ratioP1;P1;durP2;ratioP2;P2;SDS_P1;SDS_P2;PMS_P1;PMS_P2;Temp;Humidity;BMP_temperature;BMP_pressure;BME280_temperature;BME280_humidity;BME280_pressure;Samples;Min_cycle;Max_cycle;Signal;HPM_P1;HPM_P2
2024/03/01 00:02:21;;;;;;;0.52;0.50;;;6.00;99.90;;;;;;5041276;28;20088;-87
2024/03/01 00:04:48;;;;;;;0.65;0.50;;;5.90;99.90;;;;;;5017516;28;20045;-86
2024/03/01 00:07:15;;;;;;;0.60;0.40;;;5.90;99.90;;;;;;5021524;28;20053;-86
2024/03/01 00:09:43;;;;;;;0.95;0.50;;;5.90;1.00;;;;;;5021552;28;20194;-86
2024/03/01 00:12:10;;;;;;;0.63;0.45;;;5.80;1.00;;;;;;5020525;28;20136;-87
2024/03/01 00:14:37;;;;;;;0.90;0.60;;;5.70;3.30;;;;;;5021253;28;20057;-87
2024/03/01 00:17:04;;;;;;;0.60;0.40;;;5.70;1.00;;;;;;5022485;28;20411;-86
2024/03/01 00:19:32;;;;;;;0.40;0.30;;;5.70;99.90;;;;;;5024727;28;20328;-87
2024/03/01 00:21:59;;;;;;;1.30;0.50;;;5.70;99.90;;;;;;5019470;28;20049;-86
2024/03/01 00:24:26;;;;;;;0.52;0.50;;;5.60;99.90;;;;;;5015192;28;20156;-86
2024/03/01 00:26:54;;;;;;;0.45;0.45;;;5.50;1.00;;;;;;5020551;28;20111;-86
2024/03/01 00:29:20;;;;;;;0.70;0.70;;;5.50;1.00;;;;;;5019540;28;20067;-86
2024/03/01 00:31:47;;;;;;;0.30;0.30;;;5.50;68.20;;;;;;5004982;28;20146;-86
2024/03/01 00:34:14;;;;;;;0.90;0.68;;;5.40;1.00;;;;;;5017210;28;20114;-85
2024/03/01 00:36:42;;;;;;;1.27;0.40;;;5.40;99.90;;;;;;5024267;28;20597;-87
2024/03/01 00:39:09;;;;;;;1.27;1.10;;;5.40;99.90;;;;;;5026060;28;20134;-86
2024/03/01 00:41:36;;;;;;;0.77;0.55;;;5.40;97.30;;;;;;5044457;28;20391;-86
2024/03/01 00:44:03;;;;;;;0.60;0.60;;;5.30;1.00;;;;;;5044799;28;20068;-85
2024/03/01 00:46:30;;;;;;;1.27;0.70;;;5.30;99.90;;;;;;5028848;28;20351;-86
2024/03/01 00:48:58;;;;;;;0.68;0.50;;;5.30;99.90;;;;;;5028722;28;20060;-86
2024/03/01 00:51:25;;;;;;;0.75;0.70;;;5.30;1.00;;;;;;5045154;28;20045;-87
2024/03/01 00:53:52;;;;;;;1.05;0.68;;;5.30;1.00;;;;;;5045254;28;20053;-86
2024/03/01 00:56:19;;;;;;;0.93;0.70;;;5.30;99.90;;;;;;5008613;28;20144;-87
2024/03/01 00:58:46;;;;;;;1.08;0.65;;;5.30;20.90;;;;;;5024540;28;20342;-87
2024/03/01 01:01:13;;;;;;;0.40;0.40;;;5.30;1.00;;;;;;5044673;28;20143;-86
2024/03/01 01:03:40;;;;;;;0.70;0.70;;;5.20;1.00;;;;;;5012081;28;20056;-86
2024/03/01 01:06:07;;;;;;;1.17;0.75;;;5.20;1.00;;;;;;5028108;28;20056;-87
2024/03/01 01:08:34;;;;;;;1.08;0.75;;;5.10;1.00;;;;;;5027879;28;20045;-87
2024/03/01 01:11:01;;;;;;;1.30;0.90;;;5.10;3.70;;;;;;5027267;28;20453;-86
2024/03/01 01:13:28;;;;;;;0.98;0.70;;;5.10;1.00;;;;;;5028195;28;20326;-87
2024/03/01 01:15:56;;;;;;;0.82;0.80;;;5.10;49.50;;;;;;5045020;28;20685;-87
2024/03/01 01:18:24;;;;;;;1.20;0.80;;;5.10;54.50;;;;;;5044492;28;20537;-86
2024/03/01 01:20:52;;;;;;;1.38;0.70;;;5.10;4.40;;;;;;5027886;28;20418;-87
2024/03/01 01:23:19;;;;;;;2.15;1.15;;;5.10;99.90;;;;;;5028089;28;20450;-87
2024/03/01 01:25:48;;;;;;;1.45;0.68;;;5.10;99.90;;;;;;5029910;28;20045;-87
2024/03/01 01:28:15;;;;;;;0.47;0.47;;;5.10;99.90;;;;;;5007199;28;20129;-87
2024/03/01 01:30:45;;;;;;;1.65;0.68;;;5.10;99.90;;;;;;5023044;28;20045;-86
2024/03/01 01:33:12;;;;;;;1.10;0.70;;;5.10;99.90;;;;;;5028072;28;20132;-87
2024/03/01 01:35:40;;;;;;;0.60;0.60;;;5.00;99.90;;;;;;5011003;28;20542;-86
2024/03/01 01:38:07;;;;;;;0.60;0.60;;;5.00;99.90;;;;;;5043513;28;20057;-86
2024/03/01 01:40:34;;;;;;;0.65;0.65;;;5.00;99.90;;;;;;5010696;28;20049;-86
2024/03/01 01:43:05;;;;;;;0.98;0.77;;;5.00;99.90;;;;;;5020404;28;20443;-86
2024/03/01 01:45:32;;;;;;;0.55;0.55;;;4.90;99.90;;;;;;5043492;28;20076;-86
2024/03/01 01:48:02;;;;;;;1.02;0.65;;;4.90;99.90;;;;;;5010958;28;20048;-86
2024/03/01 01:50:29;;;;;;;0.93;0.50;;;4.80;99.90;;;;;;5027294;28;20111;-87
2024/03/01 01:52:56;;;;;;;1.13;0.55;;;4.80;99.90;;;;;;5043368;28;20053;-86
2024/03/01 01:55:23;;;;;;;0.77;0.47;;;4.80;99.90;;;;;;5025614;28;20064;-86
2024/03/01 01:57:50;;;;;;;0.90;0.50;;;4.80;1.00;;;;;;5026627;28;20053;-87
2024/03/01 02:00:17;;;;;;;1.02;0.65;;;4.80;1.00;;;;;;5027118;28;20438;-87
2024/03/01 02:02:49;;;;;;;0.70;0.60;;;4.70;99.90;;;;;;5010499;28;20297;-86
2024/03/01 02:05:16;;;;;;;0.70;0.52;;;4.70;99.90;;;;;;5004704;28;20079;-86
2024/03/01 02:07:43;;;;;;;1.15;0.75;;;4.70;99.90;;;;;;5006978;28;20057;-86
2024/03/01 02:10:16;;;;;;;0.43;0.43;;;4.70;99.90;;;;;;5007202;28;20054;-86
2024/03/01 02:12:57;;;;;;;1.10;0.70;;;4.60;99.90;;;;;;5006249;28;20144;-86
2024/03/01 02:15:25;;;;;;;0.63;0.57;;;4.60;99.90;;;;;;5016986;28;20177;-86
2024/03/01 02:17:53;;;;;;;0.57;0.50;;;4.60;99.90;;;;;;5039000;28;20060;-85
2024/03/01 02:20:20;;;;;;;0.85;0.50;;;4.60;99.90;;;;;;5042438;28;20565;-86
2024/03/01 02:22:56;;;;;;;0.50;0.50;;;4.60;1.00;;;;;;5009944;28;20045;-86
2024/03/01 02:25:23;;;;;;;0.47;0.47;;;4.60;99.90;;;;;;5009352;28;20135;-86
2024/03/01 02:27:50;;;;;;;0.77;0.70;;;4.60;1.00;;;;;;5025344;28;20053;-86
2024/03/01 02:30:17;;;;;;;0.52;0.40;;;4.60;1.00;;;;;;5040866;28;20076;-86
2024/03/01 02:32:46;;;;;;;1.00;0.50;;;4.60;99.90;;;;;;5027189;28;20049;-86
2024/03/01 02:35:16;;;;;;;0.40;0.40;;;4.50;99.90;;;;;;5046966;28;20483;-86
2024/03/01 02:37:43;;;;;;;0.98;0.47;;;4.50;99.90;;;;;;5029104;28;20524;-85
2024/03/01 02:40:11;;;;;;;0.40;0.30;;;4.50;99.90;;;;;;5030700;28;20084;-85
2024/03/01 02:42:38;;;;;;;0.77;0.50;;;4.40;40.60;;;;;;5024324;28;20049;-87
2024/03/01 02:45:08;;;;;;;0.60;0.45;;;4.40;99.90;;;;;;5026699;28;20049;-86
2024/03/01 02:47:35;;;;;;;0.70;0.52;;;4.40;99.90;;;;;;5026429;28;20151;-86
2024/03/01 02:50:02;;;;;;;0.40;0.40;;;4.40;99.90;;;;;;5013120;28;20049;-86
2024/03/01 02:52:34;;;;;;;0.45;0.45;;;4.30;99.90;;;;;;5013140;28;20502;-86
2024/03/01 02:55:04;;;;;;;0.65;0.43;;;4.30;99.90;;;;;;5021502;28;20467;-85
2024/03/01 02:57:36;;;;;;;1.08;0.50;;;4.30;99.90;;;;;;5008850;28;20060;-85
2024/03/01 03:00:05;;;;;;;1.25;0.47;;;4.30;99.90;;;;;;5026564;28;20057;-86
2024/03/01 03:02:34;;;;;;;0.30;0.30;;;4.20;99.90;;;;;;5011152;28;20045;-86
2024/03/01 03:05:01;;;;;;;0.43;0.43;;;4.20;99.90;;;;;;5001448;28;20056;-86
2024/03/01 03:07:28;;;;;;;0.65;0.60;;;4.10;99.90;;;;;;5029188;28;20057;-86
2024/03/01 03:09:59;;;;;;;1.30;0.30;;;4.10;99.90;;;;;;5010516;28;20068;-84
2024/03/01 03:12:26;;;;;;;0.65;0.40;;;4.10;1.00;;;;;;5009837;28;20052;-86
2024/03/01 03:14:54;;;;;;;0.40;0.40;;;4.10;99.90;;;;;;5030258;28;20044;-86
2024/03/01 03:17:22;;;;;;;0.80;0.50;;;4.10;99.90;;;;;;5030558;28;20064;-85
2024/03/01 03:19:51;;;;;;;0.40;0.40;;;4.10;99.90;;;;;;5030586;28;20049;-86
2024/03/01 03:22:18;;;;;;;1.25;0.50;;;4.00;99.90;;;;;;5028652;28;20305;-85
2024/03/01 03:24:46;;;;;;;1.27;0.60;;;4.00;99.90;;;;;;5025151;28;20053;-85
2024/03/01 03:27:13;;;;;;;0.57;0.30;;;4.00;1.00;;;;;;5023539;28;20484;-85
2024/03/01 03:29:40;;;;;;;0.40;0.40;;;4.00;1.00;;;;;;5027939;28;20049;-85
2024/03/01 03:32:15;;;;;;;0.50;0.32;;;4.00;1.00;;;;;;5012503;28;20053;-86
2024/03/01 03:34:42;;;;;;;1.13;0.60;;;4.00;1.00;;;;;;5030145;28;20057;-86
2024/03/01 03:37:09;;;;;;;0.50;0.50;;;4.00;1.00;;;;;;5045413;28;20053;-86
2024/03/01 03:39:37;;;;;;;0.50;0.50;;;4.10;99.90;;;;;;5045944;28;20059;-85
2024/03/01 03:42:06;;;;;;;0.60;0.40;;;4.10;99.90;;;;;;5044523;28;20045;-84
2024/03/01 03:44:33;;;;;;;0.60;0.50;;;4.20;99.90;;;;;;5029432;28;20052;-85
2024/03/01 03:47:01;;;;;;;0.68;0.40;;;4.30;99.90;;;;;;5027601;28;20053;-83
2024/03/01 03:49:29;;;;;;;0.70;0.60;;;4.30;99.90;;;;;;5009362;28;20636;-82
2024/03/01 03:51:57;;;;;;;0.63;0.52;;;4.40;99.90;;;;;;5023054;28;20052;-83
2024/03/01 03:54:27;;;;;;;0.50;0.43;;;4.40;99.90;;;;;;5023255;28;20184;-82
2024/03/01 03:56:53;;;;;;;0.85;0.50;;;4.40;48.40;;;;;;5005586;28;20076;-82
2024/03/01 03:59:20;;;;;;;0.60;0.60;;;4.30;1.00;;;;;;5025580;28;20411;-83
2024/03/01 04:01:49;;;;;;;0.60;0.60;;;4.30;1.00;;;;;;5026528;28;20056;-82
2024/03/01 04:04:16;;;;;;;0.73;0.40;;;4.30;1.00;;;;;;5009765;28;20545;-82
2024/03/01 04:06:43;;;;;;;0.70;0.50;;;4.30;47.70;;;;;;5043701;28;20049;-82
2024/03/01 04:09:12;;;;;;;0.57;0.38;;;4.30;3.00;;;;;;5009815;28;20075;-82
2024/03/01 04:11:42;;;;;;;0.45;0.40;;;4.30;1.00;;;;;;5042344;28;20057;-82
2024/03/01 04:14:10;;;;;;;0.70;0.30;;;4.20;99.90;;;;;;5029256;28;20150;-82
2024/03/01 04:16:37;;;;;;;0.38;0.30;;;4.20;1.00;;;;;;5048201;28;20052;-82
2024/03/01 04:19:08;;;;;;;0.63;0.40;;;4.20;1.00;;;;;;5046815;28;20053;-82
2024/03/01 04:21:37;;;;;;;0.30;0.30;;;4.20;99.90;;;;;;5014795;28;20055;-82
2024/03/01 04:24:11;;;;;;;0.77;0.60;;;4.20;99.90;;;;;;5031053;28;20049;-82
2024/03/01 04:26:39;;;;;;;0.28;0.28;;;4.20;99.90;;;;;;5025856;28;20064;-82
2024/03/01 04:29:07;;;;;;;0.30;0.30;;;4.20;99.90;;;;;;5011735;28;20100;-83
2024/03/01 04:31:35;;;;;;;0.32;0.32;;;4.20;99.90;;;;;;5013681;28;20128;-82
2024/03/01 04:34:05;;;;;;;0.55;0.32;;;4.20;99.90;;;;;;5011132;28;20053;-82
2024/03/01 04:36:33;;;;;;;1.40;0.50;;;4.20;99.90;;;;;;5009897;28;20618;-83
2024/03/01 04:39:03;;;;;;;0.55;0.40;;;4.20;99.90;;;;;;5009180;28;20085;-82
2024/03/01 04:41:30;;;;;;;0.30;0.30;;;4.20;99.90;;;;;;5012554;28;20053;-82
2024/03/01 04:43:57;;;;;;;0.30;0.30;;;4.20;99.90;;;;;;5029236;28;20395;-82
2024/03/01 04:46:24;;;;;;;0.43;0.40;;;4.20;99.90;;;;;;5029330;28;20475;-82
2024/03/01 04:48:50;;;;;;;0.40;0.40;;;4.20;99.90;;;;;;5029210;28;20075;-83
2024/03/01 04:51:23;;;;;;;0.40;0.40;;;4.20;99.90;;;;;;5045599;28;20075;-82
2024/03/01 04:53:52;;;;;;;0.30;0.30;;;4.20;99.90;;;;;;5047129;28;20080;-83
2024/03/01 04:56:20;;;;;;;0.50;0.50;;;4.20;99.90;;;;;;5038260;28;20070;-82
2024/03/01 04:58:47;;;;;;;0.52;0.30;;;4.20;99.90;;;;;;5046721;28;20067;-84
2024/03/01 05:01:22;;;;;;;0.68;0.40;;;4.20;99.90;;;;;;5012233;28;20447;-83
2024/03/01 05:03:51;;;;;;;0.50;0.22;;;4.20;99.90;;;;;;5027104;28;20081;-83
2024/03/01 05:06:18;;;;;;;0.63;0.40;;;4.20;24.50;;;;;;5044867;28;20049;-83
2024/03/01 05:08:46;;;;;;;1.20;0.68;;;4.20;1.00;;;;;;5014207;28;20060;-83
2024/03/01 05:11:14;;;;;;;0.68;0.50;;;4.20;1.00;;;;;;5027615;28;20111;-82
2024/03/01 05:13:42;;;;;;;0.73;0.40;;;4.20;58.60;;;;;;5047779;28;20056;-83
2024/03/01 05:16:10;;;;;;;0.30;0.30;;;4.30;99.90;;;;;;5046863;28;20133;-83
2024/03/01 05:18:39;;;;;;;0.40;0.40;;;4.30;1.00;;;;;;5030381;28;20099;-83
2024/03/01 05:21:09;;;;;;;0.47;0.40;;;4.30;99.90;;;;;;5013122;28;20057;-83
2024/03/01 05:23:36;;;;;;;0.65;0.40;;;4.30;99.90;;;;;;5036163;28;20049;-82
2024/03/01 05:26:04;;;;;;;0.40;0.40;;;4.30;99.90;;;;;;5045466;28;20045;-83
2024/03/01 05:28:32;;;;;;;0.47;0.40;;;4.30;99.90;;;;;;5046477;28;20110;-83
2024/03/01 05:31:01;;;;;;;0.88;0.50;;;4.30;99.90;;;;;;5046646;28;20053;-83
2024/03/01 05:33:43;;;;;;;0.60;0.50;;;4.40;99.90;;;;;;5018551;28;20138;-83
2024/03/01 05:36:10;;;;;;;0.40;0.40;;;4.40;99.90;;;;;;5030199;28;20183;-83
2024/03/01 05:38:40;;;;;;;1.55;0.45;;;4.40;92.30;;;;;;5029790;28;20464;-83
2024/03/01 05:41:09;;;;;;;0.68;0.45;;;4.40;1.00;;;;;;5047632;28;20634;-83
2024/03/01 05:43:40;;;;;;;0.40;0.40;;;4.40;1.00;;;;;;5030308;28;20499;-83
2024/03/01 05:46:14;;;;;;;0.43;0.40;;;4.50;1.00;;;;;;5046490;28;20567;-83
2024/03/01 05:48:42;;;;;;;1.98;0.35;;;4.50;99.90;;;;;;5046412;28;20253;-83
2024/03/01 05:51:11;;;;;;;1.23;0.55;;;4.60;99.90;;;;;;5043892;28;20064;-84
2024/03/01 05:53:41;;;;;;;0.73;0.50;;;4.50;99.90;;;;;;5007878;28;20119;-83
2024/03/01 05:56:17;;;;;;;0.52;0.38;;;4.60;99.90;;;;;;5007212;28;20056;-84
2024/03/01 05:58:47;;;;;;;0.82;0.40;;;4.60;99.90;;;;;;5023969;28;20060;-83
2024/03/01 06:01:16;;;;;;;0.82;0.70;;;4.70;99.90;;;;;;5028230;28;20053;-83
2024/03/01 06:03:43;;;;;;;0.70;0.30;;;4.70;99.90;;;;;;5009044;28;20049;-83
2024/03/01 06:06:14;;;;;;;0.65;0.40;;;4.80;99.90;;;;;;5022236;28;20053;-83
2024/03/01 06:08:42;;;;;;;0.63;0.50;;;4.80;1.00;;;;;;5022442;28;20104;-82
2024/03/01 06:11:10;;;;;;;0.40;0.30;;;4.80;1.00;;;;;;5021482;28;20566;-82
2024/03/01 06:13:38;;;;;;;1.02;0.50;;;4.80;1.00;;;;;;5023414;28;20052;-82
2024/03/01 06:16:06;;;;;;;1.35;0.95;;;4.80;1.00;;;;;;5004824;28;20045;-82
2024/03/01 06:18:33;;;;;;;2.55;1.08;;;4.80;99.90;;;;;;5014628;28;20087;-82
2024/03/01 06:21:00;;;;;;;2.22;1.00;;;4.90;99.90;;;;;;5012793;28;20102;-82
2024/03/01 06:23:28;;;;;;;1.58;1.10;;;4.90;1.00;;;;;;5016200;28;20294;-83
2024/03/01 06:25:56;;;;;;;1.63;1.20;;;4.90;99.90;;;;;;5007085;28;20048;-82
2024/03/01 06:28:23;;;;;;;1.58;0.80;;;5.00;99.90;;;;;;5008352;28;20509;-82
2024/03/01 06:30:50;;;;;;;1.05;0.80;;;5.10;99.90;;;;;;5024187;28;20065;-82
2024/03/01 06:33:17;;;;;;;1.90;0.70;;;5.10;99.90;;;;;;5004509;28;20053;-82
2024/03/01 06:35:44;;;;;;;1.58;0.70;;;5.20;99.90;;;;;;5019024;28;20337;-82
2024/03/01 06:38:11;;;;;;;1.58;1.00;;;5.20;55.20;;;;;;5018024;28;20052;-82
2024/03/01 06:40:38;;;;;;;2.58;0.90;;;5.30;1.00;;;;;;5028170;28;20528;-82
2024/03/01 06:43:05;;;;;;;1.75;0.90;;;5.40;99.90;;;;;;5014561;28;20045;-82
2024/03/01 06:45:32;;;;;;;3.53;1.00;;;5.40;99.90;;;;;;5031471;28;20044;-82
2024/03/01 06:47:59;;;;;;;1.02;0.90;;;5.50;99.90;;;;;;5015975;28;20511;-82
2024/03/01 06:50:26;;;;;;;2.75;0.70;;;5.60;1.00;;;;;;5011400;28;20057;-82
2024/03/01 06:52:53;;;;;;;2.30;0.88;;;5.60;1.00;;;;;;5002877;28;20107;-82
2024/03/01 06:55:20;;;;;;;2.28;0.75;;;5.70;99.90;;;;;;5016934;28;20049;-82
2024/03/01 06:57:47;;;;;;;2.42;0.80;;;5.70;99.90;;;;;;4997021;28;20075;-81
2024/03/01 07:00:15;;;;;;;2.58;0.85;;;5.80;99.90;;;;;;5029069;28;20418;-80
2024/03/01 07:02:42;;;;;;;1.58;0.77;;;5.90;99.90;;;;;;5014262;28;20468;-80
2024/03/01 07:05:09;;;;;;;1.60;0.77;;;5.90;99.90;;;;;;5027389;28;20539;-79
2024/03/01 07:07:37;;;;;;;2.72;0.77;;;5.90;99.90;;;;;;5027760;28;20415;-79
2024/03/01 07:10:05;;;;;;;4.55;1.23;;;5.90;1.00;;;;;;5025195;28;20446;-79
2024/03/01 07:12:31;;;;;;;2.40;1.10;;;5.90;91.10;;;;;;5024601;28;20045;-79
2024/03/01 07:14:58;;;;;;;3.00;1.10;;;5.90;99.90;;;;;;5031971;28;20052;-80
2024/03/01 07:17:25;;;;;;;3.83;1.15;;;5.90;99.90;;;;;;5028126;28;20454;-80
2024/03/01 07:19:52;;;;;;;3.05;1.13;;;5.90;99.90;;;;;;5031526;28;20403;-80
2024/03/01 07:22:18;;;;;;;3.63;1.33;;;5.90;99.90;;;;;;5029689;28;20415;-81
2024/03/01 07:24:45;;;;;;;2.00;1.08;;;5.80;99.90;;;;;;5010734;28;20045;-81
2024/03/01 07:27:12;;;;;;;2.20;0.77;;;5.80;99.90;;;;;;5011241;28;20064;-81
2024/03/01 07:29:39;;;;;;;3.25;1.20;;;5.70;99.90;;;;;;5012806;28;20048;-81
2024/03/01 07:32:06;;;;;;;2.20;0.70;;;5.70;21.80;;;;;;5039431;28;20049;-80
2024/03/01 07:34:33;;;;;;;1.17;0.65;;;5.60;1.00;;;;;;5022999;28;20337;-81
2024/03/01 07:37:00;;;;;;;2.55;0.90;;;5.50;1.00;;;;;;5026168;28;20057;-83
2024/03/01 07:39:27;;;;;;;1.75;0.70;;;5.50;12.70;;;;;;4990001;28;20140;-81
2024/03/01 07:41:54;;;;;;;1.20;0.70;;;5.40;1.00;;;;;;5015828;28;20072;-81
2024/03/01 07:44:21;;;;;;;1.15;0.57;;;5.40;1.00;;;;;;5038525;28;20064;-81
2024/03/01 07:46:55;;;;;;;0.47;0.45;;;5.40;1.00;;;;;;5038796;28;20085;-81
2024/03/01 07:49:22;;;;;;;1.60;0.50;;;5.40;99.90;;;;;;4991226;28;20064;-80
2024/03/01 07:51:52;;;;;;;0.73;0.40;;;5.40;99.90;;;;;;5024078;28;21491;-80
2024/03/01 07:54:19;;;;;;;1.02;0.45;;;5.30;99.90;;;;;;5023211;28;20068;-78
2024/03/01 07:56:46;;;;;;;0.68;0.50;;;5.30;99.90;;;;;;5014726;28;20053;-80
2024/03/01 07:59:12;;;;;;;0.88;0.52;;;5.30;99.90;;;;;;5017283;28;20045;-80
2024/03/01 08:01:39;;;;;;;1.38;0.60;;;5.20;99.90;;;;;;5032842;28;20045;-79
2024/03/01 08:04:06;;;;;;;0.90;0.60;;;5.20;99.90;;;;;;5001967;28;20041;-80
2024/03/01 08:06:33;;;;;;;1.23;0.43;;;5.20;1.00;;;;;;5001793;28;20053;-81
2024/03/01 08:09:00;;;;;;;0.85;0.70;;;5.20;99.90;;;;;;5027461;28;20056;-81
2024/03/01 08:11:42;;;;;;;1.52;0.60;;;5.30;1.00;;;;;;5038712;28;20553;-81
2024/03/01 08:14:25;;;;;;;0.88;0.50;;;5.30;99.90;;;;;;5034651;28;20045;-80
2024/03/01 08:16:52;;;;;;;0.95;0.60;;;5.30;1.00;;;;;;4987280;28;20080;-80
2024/03/01 08:19:21;;;;;;;1.02;0.40;;;5.40;99.90;;;;;;5023894;28;20056;-80
2024/03/01 08:21:48;;;;;;;1.98;0.65;;;5.40;51.30;;;;;;5022567;28;20495;-81
2024/03/01 08:24:19;;;;;;;0.65;0.43;;;5.50;99.90;;;;;;5018419;28;20045;-80
2024/03/01 08:26:47;;;;;;;2.13;0.50;;;5.50;99.90;;;;;;5017323;28;20049;-80
2024/03/01 08:29:13;;;;;;;0.75;0.32;;;5.50;99.90;;;;;;5007703;28;20056;-80
2024/03/01 08:31:40;;;;;;;0.77;0.47;;;5.50;1.00;;;;;;5016850;28;20049;-80
2024/03/01 08:34:40;;;;;;;0.52;0.45;;;5.50;99.90;;;;;;5017502;28;20075;-81
2024/03/01 08:37:08;;;;;;;1.42;0.43;;;5.60;99.90;;;;;;5035355;28;20045;-80
2024/03/01 08:39:35;;;;;;;1.20;0.70;;;5.60;1.00;;;;;;5039075;28;20049;-80
2024/03/01 08:42:02;;;;;;;0.50;0.43;;;5.70;1.00;;;;;;5000917;28;20041;-81
2024/03/01 08:44:54;;;;;;;1.15;0.50;;;5.80;81.10;;;;;;5019790;28;20092;-80
2024/03/01 08:47:21;;;;;;;0.93;0.50;;;5.90;99.90;;;;;;5018039;28;20053;-81
2024/03/01 08:49:51;;;;;;;1.10;0.52;;;6.00;99.90;;;;;;5035044;28;20114;-81
2024/03/01 08:52:34;;;;;;;1.83;0.68;;;6.10;99.90;;;;;;5031132;28;20056;-82
2024/03/01 08:55:16;;;;;;;1.67;0.70;;;6.20;99.90;;;;;;5018688;28;20116;-84
2024/03/01 08:57:49;;;;;;;4.30;1.67;;;6.30;99.90;;;;;;5018987;28;20506;-83
2024/03/01 09:00:36;;;;;;;0.63;0.32;;;6.40;99.90;;;;;;5021213;28;20045;-82
2024/03/01 09:03:04;;;;;;;2.08;0.60;;;6.40;99.90;;;;;;5031149;28;20056;-84
2024/03/01 09:05:32;;;;;;;1.20;0.50;;;6.50;10.00;;;;;;5021710;28;20371;-83
2024/03/01 09:08:03;;;;;;;0.93;0.70;;;6.50;1.00;;;;;;5007148;28;20497;-82
2024/03/01 09:10:32;;;;;;;2.35;0.57;;;6.60;1.00;;;;;;5004534;28;20442;-81
2024/03/01 09:12:59;;;;;;;1.38;0.77;;;6.60;1.00;;;;;;5004405;28;20057;-82
2024/03/01 09:15:30;;;;;;;1.63;0.60;;;6.60;99.90;;;;;;5015529;28;20053;-83
2024/03/01 09:17:57;;;;;;;1.75;0.60;;;6.70;99.90;;;;;;5042905;28;20056;-82
2024/03/01 09:20:32;;;;;;;0.70;0.50;;;6.70;93.00;;;;;;5004714;28;20081;-83
2024/03/01 09:22:59;;;;;;;3.03;0.60;;;6.70;1.00;;;;;;5019957;28;20102;-81
2024/03/01 09:25:46;;;;;;;4.10;0.90;;;6.60;1.00;;;;;;5005191;28;20264;-85
2024/03/01 09:28:17;;;;;;;1.42;0.70;;;6.60;99.90;;;;;;5025825;28;20044;-85
2024/03/01 09:30:45;;;;;;;0.73;0.70;;;6.30;99.90;;;;;;4996876;28;20144;-86
2024/03/01 09:33:16;;;;;;;0.73;0.52;;;6.10;99.90;;;;;;5039897;28;20148;-84
2024/03/01 09:35:50;;;;;;;0.93;0.60;;;5.90;99.90;;;;;;5024950;28;20049;-83
2024/03/01 09:38:21;;;;;;;0.52;0.30;;;5.90;99.90;;;;;;5001067;28;20094;-78
2024/03/01 09:40:51;;;;;;;0.82;0.50;;;5.90;1.00;;;;;;5022207;28;20057;-78
2024/03/01 09:43:36;;;;;;;0.90;0.40;;;5.90;79.90;;;;;;5038218;28;20123;-77
2024/03/01 09:46:06;;;;;;;0.82;0.55;;;6.00;99.90;;;;;;5025652;28;20498;-77
2024/03/01 09:48:39;;;;;;;0.63;0.60;;;5.90;99.10;;;;;;5022478;28;20349;-77
2024/03/01 09:51:18;;;;;;;0.63;0.40;;;6.00;99.90;;;;;;5035207;28;20527;-77
2024/03/01 09:54:06;;;;;;;1.05;0.50;;;6.00;99.90;;;;;;5035416;28;20452;-78
2024/03/01 09:56:58;;;;;;;0.50;0.40;;;6.00;99.90;;;;;;5039365;28;20076;-77
2024/03/01 09:59:32;;;;;;;1.73;0.40;;;6.00;99.90;;;;;;5038130;28;20053;-77
2024/03/01 10:02:21;;;;;;;0.57;0.50;;;6.10;99.90;;;;;;5033716;28;20139;-78
2024/03/01 10:05:26;;;;;;;0.40;0.40;;;6.10;99.90;;;;;;5025346;28;20053;-78
2024/03/01 10:08:14;;;;;;;1.48;0.68;;;6.10;99.90;;;;;;5017326;28;20057;-78
2024/03/01 10:11:08;;;;;;;0.55;0.43;;;6.30;99.90;;;;;;5037253;28;20056;-79
2024/03/01 10:13:59;;;;;;;0.52;0.40;;;6.40;99.90;;;;;;5017097;28;20302;-78
2024/03/01 10:17:13;;;;;;;1.00;0.38;;;6.50;99.90;;;;;;5027052;28;20053;-78
2024/03/01 10:20:06;;;;;;;0.32;0.32;;;6.60;1.00;;;;;;5027911;28;20051;-78
2024/03/01 10:23:03;;;;;;;0.75;0.60;;;6.60;99.90;;;;;;5024112;28;20096;-79
2024/03/01 10:25:44;;;;;;;1.38;0.50;;;6.50;99.90;;;;;;5027769;28;20053;-80
2024/03/01 10:28:41;;;;;;;1.13;0.50;;;6.40;65.20;;;;;;5029765;28;20400;-80
2024/03/01 10:32:07;;;;;;;0.98;0.80;;;6.20;1.00;;;;;;5034233;28;20435;-79
2024/03/01 10:34:51;;;;;;;0.43;0.43;;;6.10;99.90;;;;;;4986562;28;20126;-78
2024/03/01 10:37:35;;;;;;;1.75;0.60;;;6.20;99.90;;;;;;4992255;28;20104;-78
2024/03/01 10:40:12;;;;;;;0.40;0.38;;;6.30;1.00;;;;;;5000686;28;20135;-78
2024/03/01 10:43:06;;;;;;;0.40;0.40;;;6.40;99.90;;;;;;5006544;28;20832;-78
2024/03/01 10:46:11;;;;;;;0.77;0.50;;;6.60;99.90;;;;;;5018928;28;20060;-78
2024/03/01 10:48:56;;;;;;;0.38;0.38;;;6.80;81.40;;;;;;5034075;28;20065;-79
2024/03/01 10:51:25;;;;;;;0.30;0.30;;;7.00;99.90;;;;;;5039746;28;20049;-78
2024/03/01 10:53:55;;;;;;;1.75;0.60;;;7.10;99.90;;;;;;5001892;28;20486;-78
2024/03/01 10:56:22;;;;;;;1.00;0.50;;;7.00;1.00;;;;;;4992575;28;20131;-79
2024/03/01 10:58:59;;;;;;;2.53;1.10;;;6.90;81.30;;;;;;5021966;28;20053;-79
2024/03/01 11:01:50;;;;;;;0.88;0.73;;;6.90;78.30;;;;;;5013495;28;20132;-78
2024/03/01 11:04:20;;;;;;;0.52;0.50;;;6.90;99.90;;;;;;5020207;28;20100;-78
2024/03/01 11:07:09;;;;;;;0.77;0.55;;;6.90;99.90;;;;;;5038544;28;20180;-78
2024/03/01 11:09:46;;;;;;;3.42;1.15;;;6.90;1.00;;;;;;5016649;28;20639;-78
2024/03/01 11:12:32;;;;;;;0.98;0.77;;;6.80;99.90;;;;;;4993507;28;20049;-78
2024/03/01 11:15:12;;;;;;;1.30;0.90;;;6.90;99.90;;;;;;5009365;28;20345;-78
2024/03/01 11:17:40;;;;;;;2.13;0.95;;;7.00;99.90;;;;;;5013066;28;20166;-77
2024/03/01 11:20:13;;;;;;;0.98;0.47;;;7.00;99.90;;;;;;5021815;28;20104;-78
2024/03/01 11:22:46;;;;;;;0.93;0.68;;;7.10;99.90;;;;;;4999944;28;20527;-77
2024/03/01 11:25:19;;;;;;;0.47;0.47;;;7.20;99.90;;;;;;5001358;28;20202;-78
2024/03/01 11:28:04;;;;;;;1.10;0.60;;;7.10;99.90;;;;;;5013890;28;20049;-77
2024/03/01 11:30:32;;;;;;;0.73;0.60;;;7.00;99.90;;;;;;5035823;28;20096;-77
2024/03/01 11:33:01;;;;;;;1.27;0.57;;;7.00;99.90;;;;;;5026141;28;20772;-77
2024/03/01 11:35:40;;;;;;;0.40;0.40;;;7.00;99.90;;;;;;5020464;28;20491;-77
2024/03/01 11:38:08;;;;;;;0.57;0.57;;;7.10;99.90;;;;;;5025938;28;20049;-77
2024/03/01 11:40:49;;;;;;;0.40;0.40;;;7.30;99.90;;;;;;5040735;28;20053;-77
2024/03/01 11:43:39;;;;;;;0.85;0.70;;;7.40;99.90;;;;;;5033980;28;20385;-77
2024/03/01 11:46:25;;;;;;;1.10;0.50;;;7.50;99.90;;;;;;5010936;28;20049;-76
2024/03/01 11:49:05;;;;;;;1.85;0.60;;;7.40;99.90;;;;;;5023596;28;20507;-76
2024/03/01 11:51:56;;;;;;;1.25;0.60;;;7.40;99.90;;;;;;5018695;28;20050;-77
2024/03/01 11:54:56;;;;;;;0.50;0.47;;;7.40;97.40;;;;;;5011802;28;20220;-77
2024/03/01 11:57:38;;;;;;;1.33;0.50;;;7.30;87.70;;;;;;5033506;28;20119;-77
2024/03/01 12:00:15;;;;;;;0.32;0.30;;;7.30;61.90;;;;;;5012843;28;20059;-77
2024/03/01 12:02:57;;;;;;;0.40;0.40;;;7.40;48.00;;;;;;5024625;28;20053;-79
2024/03/01 12:06:04;;;;;;;0.40;0.40;;;7.40;35.40;;;;;;5024299;28;20103;-77
2024/03/01 12:08:39;;;;;;;1.08;0.40;;;7.50;40.40;;;;;;5024733;28;20049;-77
2024/03/01 12:11:15;;;;;;;0.82;0.50;;;7.60;20.10;;;;;;5026603;28;20200;-77
2024/03/01 12:13:56;;;;;;;0.30;0.30;;;7.80;22.70;;;;;;5034029;28;20056;-78
2024/03/01 12:16:44;;;;;;;0.70;0.70;;;8.00;20.10;;;;;;5009742;28;20056;-78
2024/03/01 12:19:36;;;;;;;0.38;0.35;;;7.90;18.10;;;;;;5007146;28;20476;-79
2024/03/01 12:22:30;;;;;;;0.50;0.50;;;8.10;15.70;;;;;;5037876;28;20041;-79
2024/03/01 12:25:00;;;;;;;1.10;0.50;;;8.30;13.80;;;;;;5035442;28;20513;-80
2024/03/01 12:27:58;;;;;;;0.90;0.28;;;8.50;15.50;;;;;;5015621;28;20049;-83
2024/03/01 12:30:26;;;;;;;0.20;0.20;;;8.60;10.80;;;;;;5029157;28;20111;-78
2024/03/01 12:33:20;;;;;;;0.60;0.60;;;8.70;4.80;;;;;;5039488;28;20052;-77
2024/03/01 12:36:14;;;;;;;0.50;0.50;;;8.80;1.00;;;;;;5038134;28;20048;-78
2024/03/01 12:38:43;;;;;;;0.40;0.40;;;9.00;1.00;;;;;;5042927;28;20056;-78
2024/03/01 12:41:35;;;;;;;1.25;0.30;;;9.30;1.00;;;;;;5024713;28;20064;-77
2024/03/01 12:44:16;;;;;;;0.30;0.30;;;9.20;1.00;;;;;;5030436;28;20126;-78
2024/03/01 12:47:11;;;;;;;2.47;0.50;;;9.10;1.00;;;;;;5041990;28;20365;-78
2024/03/01 12:50:00;;;;;;;1.02;0.30;;;9.20;1.00;;;;;;5029166;28;20311;-77
2024/03/01 12:52:33;;;;;;;0.82;0.63;;;9.60;1.00;;;;;;5037998;28;20083;-78
2024/03/01 12:55:15;;;;;;;2.33;0.50;;;9.60;1.00;;;;;;5032358;28;20045;-78
2024/03/01 12:57:51;;;;;;;1.30;0.57;;;9.60;1.00;;;;;;5011105;28;20513;-78
2024/03/01 13:00:23;;;;;;;0.50;0.50;;;9.60;1.00;;;;;;5027739;28;20526;-77
2024/03/01 13:03:27;;;;;;;0.47;0.40;;;9.60;1.00;;;;;;5021472;28;20431;-77
2024/03/01 13:05:55;;;;;;;0.47;0.47;;;9.90;1.00;;;;;;5035858;28;20045;-77
2024/03/01 13:08:33;;;;;;;0.70;0.40;;;10.60;1.00;;;;;;5005096;28;20112;-77
2024/03/01 13:11:01;;;;;;;0.43;0.40;;;10.70;1.00;;;;;;5038252;28;20053;-77
2024/03/01 13:13:33;;;;;;;0.98;0.63;;;10.50;1.00;;;;;;5048122;28;20044;-77
2024/03/01 13:16:09;;;;;;;1.90;0.70;;;10.40;1.00;;;;;;5034487;28;20088;-78
2024/03/01 13:19:02;;;;;;;1.58;0.70;;;10.30;1.00;;;;;;5029564;28;20049;-78
2024/03/01 13:21:44;;;;;;;1.52;0.88;;;10.50;1.00;;;;;;5030043;28;20059;-78
2024/03/01 13:24:15;;;;;;;2.83;1.08;;;10.40;1.00;;;;;;5022984;28;20060;-77
2024/03/01 13:27:09;;;;;;;1.05;0.80;;;10.40;1.00;;;;;;5031149;28;20506;-78
2024/03/01 13:29:36;;;;;;;0.73;0.60;;;10.60;1.00;;;;;;5042430;28;20079;-78